Time;durP1;ratioP1;P1;durP2;ratioP2;P2;SDS_P1;SDS_P2;PMS_P1;PMS_P2;Temp;Humidity;BMP_temperature;BMP_pressure;BME280_temperature;BME280_humidity;BME280_pressure;Samples;Min_cycle;Max_cycle;Signal;HPM_P1;HPM_P2
2022/08/01 00:00:27;;;;;;;7.90;3.95;;;15.50;99.90;;;;;;5056587;28;20417;-54
2022/08/01 00:02:53;;;;;;;4.95;3.30;;;15.50;99.90;;;;;;5056210;28;20029;-54
2022/08/01 00:05:19;;;;;;;6.45;3.92;;;15.50;99.90;;;;;;5056469;28;20493;-54
2022/08/01 00:07:45;;;;;;;7.30;3.40;;;15.60;99.90;;;;;;5056450;28;20029;-54
2022/08/01 00:10:13;;;;;;;11.75;4.38;;;15.50;99.90;;;;;;5056438;28;20033;-54
2022/08/01 00:12:39;;;;;;;6.25;3.80;;;15.50;99.90;;;;;;5056097;28;20122;-54
2022/08/01 00:15:07;;;;;;;6.90;4.38;;;15.50;99.90;;;;;;5056303;28;20078;-55
2022/08/01 00:17:33;;;;;;;9.63;5.35;;;15.40;99.90;;;;;;5056337;28;20032;-54
2022/08/01 00:20:00;;;;;;;13.95;6.57;;;15.30;99.90;;;;;;5056108;28;20053;-54
2022/08/01 00:22:26;;;;;;;11.85;5.30;;;15.40;99.90;;;;;;5056052;28;20088;-54
2022/08/01 00:24:52;;;;;;;8.75;5.13;;;15.40;99.90;;;;;;5056096;28;20045;-55
2022/08/01 00:27:18;;;;;;;10.20;4.90;;;15.40;99.90;;;;;;5056206;28;20029;-55
2022/08/01 00:29:44;;;;;;;9.80;5.40;;;15.40;99.90;;;;;;5056144;28;20036;-54
2022/08/01 00:32:09;;;;;;;6.97;5.00;;;15.20;99.90;;;;;;5038004;28;20028;-54
2022/08/01 00:34:35;;;;;;;8.38;5.00;;;15.30;99.90;;;;;;5055842;28;20036;-54
2022/08/01 00:37:01;;;;;;;12.45;6.20;;;15.20;99.90;;;;;;5055887;28;20034;-55
2022/08/01 00:39:27;;;;;;;11.73;5.38;;;15.20;99.90;;;;;;5055811;28;20037;-55
2022/08/01 00:41:53;;;;;;;8.68;5.05;;;15.10;99.90;;;;;;5055805;28;20174;-55
2022/08/01 00:44:19;;;;;;;5.28;3.80;;;15.00;99.90;;;;;;5055620;28;20056;-54
2022/08/01 00:46:45;;;;;;;6.65;4.45;;;15.00;99.90;;;;;;5055800;28;20107;-54
2022/08/01 00:49:11;;;;;;;7.13;4.47;;;15.00;99.90;;;;;;5055801;28;20032;-55
2022/08/01 00:51:38;;;;;;;7.03;3.97;;;15.10;99.90;;;;;;5055649;28;20032;-54
2022/08/01 00:54:04;;;;;;;8.45;4.93;;;15.10;99.90;;;;;;5055594;28;20040;-54
2022/08/01 00:56:30;;;;;;;7.68;4.00;;;15.10;99.90;;;;;;5055838;28;20025;-55
2022/08/01 00:58:56;;;;;;;6.40;4.10;;;15.00;99.90;;;;;;5055411;28;20033;-55
2022/08/01 01:01:23;;;;;;;6.47;4.28;;;14.90;99.90;;;;;;5055511;28;20025;-54
2022/08/01 01:03:50;;;;;;;10.43;4.88;;;14.90;99.90;;;;;;5055321;28;20479;-55
2022/08/01 01:06:31;;;;;;;5.28;4.05;;;14.80;99.90;;;;;;5055317;28;20024;-54
2022/08/01 01:09:16;;;;;;;;;;;14.90;99.90;;;;;;5055964;28;20298;-54
2022/08/01 01:11:55;;;;;;;5.50;3.85;;;14.80;99.90;;;;;;5055207;28;19913;-54
2022/08/01 01:14:35;;;;;;;4.25;3.47;;;14.70;99.90;;;;;;5055265;28;20086;-55
2022/08/01 01:17:04;;;;;;;6.10;3.75;;;14.70;99.90;;;;;;5055475;28;20025;-54
2022/08/01 01:19:33;;;;;;;6.90;4.15;;;14.60;99.90;;;;;;5055071;28;20017;-55
2022/08/01 01:22:52;;;;;;;4.28;3.35;;;14.60;99.90;;;;;;5055179;28;20025;-55
2022/08/01 01:25:24;;;;;;;5.00;3.47;;;14.60;99.90;;;;;;5012772;28;20033;-54
2022/08/01 01:28:23;;;;;;;7.47;3.67;;;14.60;99.90;;;;;;5012766;28;20075;-55
2022/08/01 01:30:53;;;;;;;5.85;3.40;;;14.60;99.90;;;;;;5012693;28;20041;-54
2022/08/01 01:33:22;;;;;;;4.10;3.50;;;14.80;99.90;;;;;;5012789;28;20040;-54
2022/08/01 01:35:53;;;;;;;4.20;3.60;;;14.80;99.90;;;;;;5012746;28;20035;-54
2022/08/01 01:38:26;;;;;;;4.40;3.80;;;14.80;99.90;;;;;;5014509;28;20033;-55
2022/08/01 01:40:54;;;;;;;4.80;3.42;;;14.80;99.90;;;;;;5032436;28;20029;-55
2022/08/01 01:43:22;;;;;;;5.18;3.70;;;14.80;99.90;;;;;;5032216;28;20113;-55
2022/08/01 01:45:50;;;;;;;6.00;4.13;;;14.80;99.90;;;;;;5032397;28;20049;-54
2022/08/01 01:48:19;;;;;;;5.20;3.50;;;14.70;99.90;;;;;;5032313;28;20022;-54
2022/08/01 01:50:47;;;;;;;6.70;3.92;;;14.70;99.90;;;;;;5032309;28;20036;-54
2022/08/01 01:53:17;;;;;;;8.05;3.50;;;14.70;99.90;;;;;;5032132;28;20034;-54
2022/08/01 01:55:47;;;;;;;8.52;4.00;;;14.60;99.90;;;;;;5032076;28;20029;-55
2022/08/01 01:58:15;;;;;;;6.50;3.60;;;14.60;99.90;;;;;;5036459;28;20021;-55
2022/08/01 02:00:46;;;;;;;6.30;3.60;;;14.60;99.90;;;;;;5054213;28;20029;-55
2022/08/01 02:03:14;;;;;;;5.40;3.67;;;14.60;99.90;;;;;;5054279;28;20025;-55
2022/08/01 02:05:42;;;;;;;4.57;3.50;;;14.60;99.90;;;;;;5054582;28;20402;-55
2022/08/01 02:08:11;;;;;;;7.45;3.75;;;14.70;99.90;;;;;;5054150;28;20073;-55
2022/08/01 02:10:38;;;;;;;6.05;3.58;;;14.60;99.90;;;;;;5054440;28;20142;-54
2022/08/01 02:13:06;;;;;;;4.65;3.45;;;14.70;99.90;;;;;;5054133;28;20026;-54
2022/08/01 02:15:39;;;;;;;5.57;4.05;;;14.60;99.90;;;;;;5054388;28;20100;-55
2022/08/01 02:18:07;;;;;;;4.57;3.25;;;14.50;99.90;;;;;;5054404;28;20356;-55
2022/08/01 02:20:36;;;;;;;7.68;3.80;;;14.50;99.90;;;;;;5057847;28;20383;-54
2022/08/01 02:23:10;;;;;;;5.10;3.67;;;14.50;99.90;;;;;;5076228;28;20100;-54
2022/08/01 02:25:47;;;;;;;4.60;3.03;;;14.60;99.90;;;;;;5060964;28;20029;-54
2022/08/01 02:28:22;;;;;;;5.20;3.47;;;14.50;99.90;;;;;;5060875;28;20120;-54
2022/08/01 02:30:49;;;;;;;6.07;3.60;;;14.40;99.90;;;;;;5060781;28;20029;-55
2022/08/01 02:33:20;;;;;;;6.00;4.28;;;14.50;99.90;;;;;;5060760;28;20025;-55
2022/08/01 02:35:51;;;;;;;5.30;4.03;;;14.40;99.90;;;;;;5060745;28;20390;-54
2022/08/01 02:38:20;;;;;;;4.45;3.75;;;14.40;99.90;;;;;;5060683;28;20044;-55
2022/08/01 02:40:49;;;;;;;5.47;3.33;;;14.50;99.90;;;;;;5062534;28;20103;-55
2022/08/01 02:43:20;;;;;;;5.38;3.60;;;14.40;99.90;;;;;;5057789;28;20098;-55
2022/08/01 02:45:49;;;;;;;;;;;14.40;99.90;;;;;;5069193;28;20036;-55
2022/08/01 02:48:18;;;;;;;5.40;3.55;;;14.30;99.90;;;;;;5023994;28;1236857;-55
2022/08/01 02:50:47;;;;;;;8.23;4.10;;;14.30;99.90;;;;;;5061131;28;20124;-55
2022/08/01 02:53:16;;;;;;;4.90;3.88;;;14.30;99.90;;;;;;5065372;28;20115;-55
2022/08/01 02:55:44;;;;;;;4.93;4.00;;;14.30;99.90;;;;;;5043035;28;20129;-55
2022/08/01 02:58:12;;;;;;;5.32;4.03;;;14.30;99.90;;;;;;5063066;28;20059;-55
2022/08/01 03:00:40;;;;;;;8.88;3.97;;;14.20;99.90;;;;;;5068625;28;20028;-55
2022/08/01 03:03:07;;;;;;;8.98;4.60;;;14.20;99.90;;;;;;5054812;28;20098;-55
2022/08/01 03:05:36;;;;;;;8.27;4.20;;;14.30;99.90;;;;;;5023087;28;20076;-55
2022/08/01 03:08:03;;;;;;;4.93;3.78;;;14.10;99.90;;;;;;5084592;28;20040;-55
2022/08/01 03:10:31;;;;;;;8.80;3.70;;;14.10;99.90;;;;;;5056620;28;20051;-55
2022/08/01 03:13:01;;;;;;;5.63;3.63;;;14.10;99.90;;;;;;5047616;28;20044;-55
2022/08/01 03:15:30;;;;;;;8.50;3.80;;;14.10;99.90;;;;;;5079350;28;20062;-55
2022/08/01 03:17:59;;;;;;;4.18;3.78;;;14.00;99.90;;;;;;5096607;28;20051;-55
2022/08/01 03:20:26;;;;;;;8.18;4.05;;;13.90;99.90;;;;;;5095414;28;20485;-55
2022/08/01 03:22:54;;;;;;;6.03;3.45;;;13.90;99.90;;;;;;5092966;28;20052;-55
2022/08/01 03:25:21;;;;;;;7.00;3.95;;;13.90;99.90;;;;;;5042798;28;20160;-55
2022/08/01 03:27:54;;;;;;;8.02;3.80;;;13.80;99.90;;;;;;5085283;28;20094;-55
2022/08/01 03:30:22;;;;;;;5.25;4.03;;;13.80;99.90;;;;;;5093351;28;20064;-55
2022/08/01 03:32:48;;;;;;;4.97;4.18;;;13.80;99.90;;;;;;5088437;28;20048;-55
2022/08/01 03:35:15;;;;;;;5.47;4.45;;;13.90;99.90;;;;;;4962403;28;20052;-55
2022/08/01 03:37:54;;;;;;;7.38;4.55;;;13.80;99.90;;;;;;5081923;28;20440;-55
2022/08/01 03:40:40;;;;;;;5.35;4.05;;;13.80;99.90;;;;;;5038456;28;20102;-55
2022/08/01 03:43:24;;;;;;;8.07;3.55;;;13.80;99.90;;;;;;5078870;28;20040;-55
2022/08/01 03:45:53;;;;;;;5.40;3.92;;;13.90;99.90;;;;;;5038461;28;20040;-55
2022/08/01 03:48:22;;;;;;;5.65;4.78;;;13.80;99.90;;;;;;5012443;28;20047;-55
2022/08/01 03:50:51;;;;;;;6.32;4.20;;;13.90;99.90;;;;;;5032975;28;20049;-54
2022/08/01 03:53:22;;;;;;;4.90;4.40;;;13.90;99.90;;;;;;5068103;28;20056;-55
2022/08/01 03:55:50;;;;;;;4.57;3.83;;;13.90;99.90;;;;;;4940562;28;1245899;-55
2022/08/01 03:58:17;;;;;;;6.68;4.60;;;13.90;99.90;;;;;;5053464;28;20124;-55
2022/08/01 04:00:43;;;;;;;8.55;4.18;;;13.90;99.90;;;;;;5057168;28;20036;-55
2022/08/01 04:03:11;;;;;;;6.97;4.32;;;14.00;99.90;;;;;;5064691;28;20048;-55
2022/08/01 04:05:41;;;;;;;9.95;4.20;;;14.00;99.90;;;;;;5069895;28;20041;-55
2022/08/01 04:08:07;;;;;;;8.18;4.28;;;14.10;99.90;;;;;;5069244;28;20045;-55
2022/08/01 04:10:33;;;;;;;6.60;4.00;;;14.10;99.90;;;;;;5068366;28;20051;-55
2022/08/01 04:12:59;;;;;;;7.65;4.35;;;14.10;99.90;;;;;;5068550;28;20045;-55
2022/08/01 04:15:25;;;;;;;5.53;3.72;;;14.10;99.90;;;;;;5047511;28;20052;-55
2022/08/01 04:17:51;;;;;;;6.38;4.35;;;14.20;99.90;;;;;;5066700;28;20094;-55
2022/08/01 04:20:17;;;;;;;8.48;4.88;;;14.20;99.90;;;;;;5066086;28;20048;-55
2022/08/01 04:22:43;;;;;;;6.65;4.30;;;14.30;99.90;;;;;;5066841;28;20049;-55
2022/08/01 04:25:15;;;;;;;5.97;4.20;;;14.40;99.90;;;;;;5065413;28;20137;-55
2022/08/01 04:27:45;;;;;;;9.27;4.10;;;14.50;99.90;;;;;;5058191;28;20467;-55
2022/08/01 04:30:12;;;;;;;7.38;4.50;;;14.60;99.90;;;;;;4890326;28;20103;-55
2022/08/01 04:32:42;;;;;;;5.60;4.60;;;14.60;99.90;;;;;;5031436;28;20045;-55
2022/08/01 04:35:16;;;;;;;7.55;4.68;;;14.70;99.90;;;;;;5069468;28;20208;-55
2022/08/01 04:37:45;;;;;;;10.15;4.63;;;14.80;99.90;;;;;;5049732;28;20397;-55
2022/08/01 04:40:12;;;;;;;7.93;4.53;;;14.90;99.90;;;;;;5090420;28;20044;-55
2022/08/01 04:42:38;;;;;;;10.35;5.10;;;15.00;99.90;;;;;;5089132;28;20097;-55
2022/08/01 04:45:08;;;;;;;9.82;4.05;;;15.10;99.90;;;;;;5084740;28;20039;-55
2022/08/01 04:47:39;;;;;;;7.53;4.95;;;15.20;99.90;;;;;;5088841;28;20036;-56
2022/08/01 04:50:09;;;;;;;7.60;4.80;;;15.30;99.90;;;;;;5086970;28;20107;-56
2022/08/01 04:52:36;;;;;;;7.97;4.57;;;15.30;99.90;;;;;;5088983;28;20043;-55
2022/08/01 04:55:04;;;;;;;10.50;5.65;;;15.50;99.90;;;;;;5089329;28;20088;-55
2022/08/01 04:57:30;;;;;;;11.98;6.03;;;15.50;99.90;;;;;;5081043;28;20048;-55
2022/08/01 04:59:56;;;;;;;11.45;5.55;;;15.60;99.90;;;;;;5086073;28;20448;-55
2022/08/01 05:02:23;;;;;;;8.95;5.38;;;15.70;99.90;;;;;;5040389;28;20076;-55
2022/08/01 05:04:49;;;;;;;13.93;5.30;;;15.90;99.90;;;;;;5079845;28;20047;-55
2022/08/01 05:07:15;;;;;;;12.65;5.85;;;16.00;99.90;;;;;;5102252;27;20043;-55
2022/08/01 05:09:42;;;;;;;15.57;6.85;;;16.10;99.90;;;;;;5099192;28;20040;-55
2022/08/01 05:12:10;;;;;;;11.45;5.40;;;16.20;99.90;;;;;;5027952;28;20042;-56
2022/08/01 05:14:40;;;;;;;10.85;5.18;;;16.30;99.90;;;;;;5017025;28;20169;-57
2022/08/01 05:17:08;;;;;;;16.58;6.75;;;16.40;99.90;;;;;;5090828;28;20093;-55
2022/08/01 05:19:35;;;;;;;9.88;5.43;;;16.50;99.90;;;;;;5077197;28;20043;-55
2022/08/01 05:22:04;;;;;;;9.45;4.80;;;16.60;99.90;;;;;;5081259;28;20055;-55
2022/08/01 05:24:31;;;;;;;12.27;5.55;;;16.70;99.90;;;;;;5077419;28;20556;-55
2022/08/01 05:26:58;;;;;;;10.38;6.03;;;16.70;99.90;;;;;;5076973;28;22604;-55
2022/08/01 05:29:24;;;;;;;12.20;5.68;;;16.80;99.90;;;;;;4994549;28;20042;-56
2022/08/01 05:31:51;;;;;;;17.27;5.70;;;17.00;99.90;;;;;;4896675;28;1363615;-55
2022/08/01 05:34:17;;;;;;;12.07;6.25;;;17.00;99.90;;;;;;5014639;28;20125;-55
2022/08/01 05:36:44;;;;;;;13.05;5.45;;;17.10;99.90;;;;;;4923451;28;20051;-55
2022/08/01 05:39:10;;;;;;;13.68;5.72;;;17.20;99.90;;;;;;4964839;28;20046;-55
2022/08/01 05:41:36;;;;;;;13.93;5.85;;;17.40;99.90;;;;;;5008985;28;20453;-55
2022/08/01 05:44:04;;;;;;;22.73;7.28;;;17.40;99.90;;;;;;5087459;27;20062;-55
2022/08/01 05:46:33;;;;;;;17.40;7.50;;;17.60;99.90;;;;;;5101204;27;20073;-55
2022/08/01 05:49:00;;;;;;;11.65;6.82;;;17.70;99.90;;;;;;5074618;27;22128;-55
2022/08/01 05:51:26;;;;;;;17.23;6.63;;;18.00;99.90;;;;;;5067388;28;20156;-55
2022/08/01 05:53:53;;;;;;;13.00;5.55;;;18.10;99.90;;;;;;5074962;28;20051;-55
2022/08/01 05:56:20;;;;;;;15.30;5.85;;;18.00;99.40;;;;;;5111331;27;20154;-55
2022/08/01 05:58:46;;;;;;;14.18;6.10;;;18.10;99.40;;;;;;5122788;27;20486;-55
2022/08/01 06:01:12;;;;;;;8.50;5.00;;;18.30;99.20;;;;;;5079072;28;20054;-55
2022/08/01 06:03:38;;;;;;;11.82;5.80;;;18.40;98.80;;;;;;5052824;28;20417;-55
2022/08/01 06:06:05;;;;;;;11.10;5.28;;;18.60;97.80;;;;;;5091195;28;20501;-55
2022/08/01 06:08:31;;;;;;;15.60;6.47;;;18.70;97.00;;;;;;5078719;28;20142;-56
2022/08/01 06:10:58;;;;;;;9.65;4.63;;;18.90;96.60;;;;;;5071368;28;20489;-56
2022/08/01 06:13:24;;;;;;;11.80;5.18;;;18.90;93.90;;;;;;5072648;28;20060;-55
2022/08/01 06:15:50;;;;;;;11.57;4.75;;;19.00;94.80;;;;;;5054195;28;20047;-55
2022/08/01 06:18:16;;;;;;;22.67;6.78;;;19.20;94.40;;;;;;4861330;28;20142;-56
2022/08/01 06:20:43;;;;;;;17.10;5.25;;;19.40;94.30;;;;;;4809653;29;20049;-57
2022/08/01 06:23:09;;;;;;;18.13;6.13;;;19.50;90.80;;;;;;4866052;28;1253662;-55
2022/08/01 06:25:35;;;;;;;13.50;4.78;;;19.70;89.50;;;;;;4993302;28;20045;-55
2022/08/01 06:28:01;;;;;;;16.00;5.93;;;19.80;88.00;;;;;;5016556;28;20047;-56
2022/08/01 06:30:28;;;;;;;8.45;4.90;;;20.00;89.00;;;;;;5028784;28;20069;-55
2022/08/01 06:32:55;;;;;;;13.30;5.50;;;20.20;84.90;;;;;;5062147;28;20126;-56
2022/08/01 06:35:21;;;;;;;13.25;4.65;;;20.40;84.70;;;;;;5081857;28;20455;-56
2022/08/01 06:37:48;;;;;;;16.05;5.05;;;20.60;81.50;;;;;;5046164;28;20069;-58
2022/08/01 06:40:14;;;;;;;24.80;7.53;;;20.70;79.60;;;;;;5049607;28;20105;-58
2022/08/01 06:42:41;;;;;;;23.67;5.65;;;20.90;79.70;;;;;;5073786;28;20500;-57
2022/08/01 06:45:08;;;;;;;18.98;5.38;;;21.20;78.30;;;;;;5103490;28;20055;-58
2022/08/01 06:47:34;;;;;;;10.93;4.90;;;21.30;75.80;;;;;;5077639;28;20163;-58
2022/08/01 06:50:01;;;;;;;13.60;4.97;;;21.40;74.20;;;;;;5063208;28;20477;-57
2022/08/01 06:52:27;;;;;;;25.33;6.15;;;21.70;75.10;;;;;;5069506;28;20041;-57
2022/08/01 06:54:53;;;;;;;14.75;4.60;;;21.90;74.60;;;;;;5038600;28;20109;-56
2022/08/01 06:57:19;;;;;;;23.52;6.00;;;22.10;72.30;;;;;;5062361;28;20041;-56
2022/08/01 06:59:45;;;;;;;18.85;5.25;;;22.40;71.40;;;;;;5047575;28;20051;-56
2022/08/01 07:02:11;;;;;;;14.83;8.23;;;22.60;70.00;;;;;;4935050;28;1516372;-56
2022/08/01 07:04:37;;;;;;;8.75;3.88;;;22.50;70.80;;;;;;5058012;28;20131;-56
2022/08/01 07:07:03;;;;;;;12.27;4.72;;;22.90;69.50;;;;;;5029418;28;20080;-56
2022/08/01 07:09:29;;;;;;;7.10;4.07;;;23.20;68.80;;;;;;5073973;28;20113;-56
2022/08/01 07:11:56;;;;;;;8.50;3.90;;;23.40;66.50;;;;;;5094743;28;20119;-56
2022/08/01 07:14:23;;;;;;;11.68;4.78;;;23.60;66.30;;;;;;5093888;28;20411;-56
2022/08/01 07:16:50;;;;;;;10.90;4.45;;;23.80;64.50;;;;;;5091860;28;20054;-56
2022/08/01 07:19:17;;;;;;;15.98;5.25;;;24.00;63.70;;;;;;5043176;28;20507;-56
2022/08/01 07:21:43;;;;;;;10.43;4.63;;;24.20;63.60;;;;;;5072326;28;20089;-56
2022/08/01 07:24:12;;;;;;;10.98;4.55;;;24.60;62.70;;;;;;5026748;28;20052;-56
2022/08/01 07:26:48;;;;;;;18.67;4.20;;;24.90;61.60;;;;;;5052931;28;20033;-56
2022/08/01 07:29:27;;;;;;;15.43;5.18;;;25.30;59.60;;;;;;5071616;28;20055;-56
2022/08/01 07:31:55;;;;;;;15.13;5.15;;;25.70;60.40;;;;;;5082559;28;20036;-56
2022/08/01 07:34:22;;;;;;;13.95;4.50;;;26.10;59.90;;;;;;5099912;28;20073;-56
2022/08/01 07:36:52;;;;;;;15.90;4.63;;;26.50;57.50;;;;;;5080825;28;20036;-56
2022/08/01 07:39:19;;;;;;;18.40;4.88;;;26.70;55.90;;;;;;5053829;28;20040;-56
2022/08/01 07:41:45;;;;;;;22.20;5.55;;;27.00;55.00;;;;;;5074816;28;20036;-56
2022/08/01 07:44:11;;;;;;;18.30;5.90;;;27.20;54.30;;;;;;5088738;28;20036;-56
2022/08/01 07:46:37;;;;;;;17.58;5.57;;;27.30;54.00;;;;;;5066966;28;20051;-56
2022/08/01 07:49:03;;;;;;;21.05;5.53;;;27.70;53.30;;;;;;5091063;28;20051;-56
2022/08/01 07:51:29;;;;;;;19.50;4.72;;;27.90;53.30;;;;;;5088016;28;20037;-56
2022/08/01 07:53:55;;;;;;;21.77;5.70;;;28.10;52.40;;;;;;5057811;28;20075;-56
2022/08/01 07:56:23;;;;;;;8.25;3.88;;;28.30;52.20;;;;;;5052388;28;20498;-56
2022/08/01 07:58:50;;;;;;;7.85;3.70;;;28.50;51.80;;;;;;5031832;28;20288;-56
2022/08/01 08:01:16;;;;;;;17.75;6.60;;;28.60;50.20;;;;;;5052371;28;20059;-56
2022/08/01 08:03:42;;;;;;;8.35;3.88;;;28.70;49.20;;;;;;5072767;28;20041;-56
2022/08/01 08:06:13;;;;;;;7.28;4.22;;;28.80;49.00;;;;;;5033705;28;20102;-56
2022/08/01 08:08:39;;;;;;;8.75;3.67;;;29.00;49.90;;;;;;4952187;28;20385;-56
2022/08/01 08:11:05;;;;;;;10.80;3.92;;;29.40;49.50;;;;;;4999498;28;20113;-56
2022/08/01 08:13:34;;;;;;;7.97;3.65;;;29.50;46.80;;;;;;5052324;27;20090;-56
2022/08/01 08:16:00;;;;;;;12.15;4.43;;;29.50;46.50;;;;;;5085853;27;20052;-56
2022/08/01 08:18:26;;;;;;;10.25;4.53;;;29.40;46.20;;;;;;5082908;28;20605;-56
2022/08/01 08:20:52;;;;;;;14.40;5.18;;;29.60;46.10;;;;;;5065997;27;20080;-56
2022/08/01 08:26:03;;;;;;;10.50;5.80;;;29.80;44.50;;;;;;5042901;28;20127;-56
2022/08/01 08:28:29;;;;;;;17.40;7.10;;;30.10;44.20;;;;;;4981620;28;20124;-56
2022/08/01 08:33:24;;;;;;;18.58;9.32;;;30.50;44.40;;;;;;5017472;28;20294;-56
2022/08/01 08:35:50;;;;;;;18.58;9.52;;;30.40;43.10;;;;;;5122742;27;20055;-56
2022/08/01 08:38:16;;;;;;;22.25;11.75;;;30.40;43.60;;;;;;5105635;27;26606;-57
2022/08/01 08:40:42;;;;;;;22.30;11.68;;;30.70;42.80;;;;;;5073820;28;20066;-56
2022/08/01 08:43:08;;;;;;;31.67;14.30;;;30.80;42.70;;;;;;5089692;28;20040;-56
2022/08/01 08:45:35;;;;;;;22.25;10.52;;;30.90;44.10;;;;;;4928316;28;20063;-56
2022/08/01 08:48:01;;;;;;;21.48;10.10;;;31.40;42.30;;;;;;5018904;28;20046;-56
2022/08/01 08:50:28;;;;;;;31.85;12.57;;;31.70;42.60;;;;;;5030828;28;20048;-56
2022/08/01 08:52:56;;;;;;;9.88;5.40;;;32.00;40.80;;;;;;5034582;28;20545;-56
2022/08/01 08:55:23;;;;;;;11.20;4.70;;;31.60;39.60;;;;;;5037701;28;20134;-56
2022/08/01 08:57:49;;;;;;;3.95;3.20;;;31.60;40.10;;;;;;5053948;28;20048;-56
2022/08/01 09:00:16;;;;;;;10.63;4.33;;;31.70;39.10;;;;;;4994680;28;1296320;-56
2022/08/01 09:02:43;;;;;;;10.48;5.15;;;31.90;39.10;;;;;;5057332;28;20041;-56
2022/08/01 09:05:10;;;;;;;16.90;4.97;;;31.90;39.00;;;;;;5054510;28;20059;-56
2022/08/01 09:07:36;;;;;;;17.38;4.30;;;32.20;38.50;;;;;;5031811;28;20021;-56
2022/08/01 09:10:03;;;;;;;7.03;3.60;;;32.40;39.80;;;;;;5046647;28;20430;-56
2022/08/01 09:12:29;;;;;;;4.90;2.90;;;32.30;37.70;;;;;;5049705;28;20111;-56
2022/08/01 09:14:55;;;;;;;6.47;3.83;;;32.10;37.80;;;;;;5052077;28;20141;-56
2022/08/01 09:17:21;;;;;;;9.38;4.30;;;32.50;37.90;;;;;;5053879;28;20021;-56
2022/08/01 09:19:53;;;;;;;6.95;3.58;;;32.30;38.00;;;;;;5054597;28;20032;-56
2022/08/01 09:22:22;;;;;;;11.15;3.95;;;32.60;38.70;;;;;;5041082;28;20056;-56
2022/08/01 09:25:02;;;;;;;7.38;3.50;;;32.60;37.50;;;;;;5040238;28;20125;-56
2022/08/01 09:27:28;;;;;;;12.88;4.10;;;32.30;36.90;;;;;;5044929;28;20029;-56
2022/08/01 09:29:54;;;;;;;8.48;4.30;;;32.60;38.30;;;;;;5047120;28;20067;-56
2022/08/01 09:32:21;;;;;;;9.65;3.40;;;32.90;36.90;;;;;;5051487;28;20033;-56
2022/08/01 09:34:46;;;;;;;15.50;4.32;;;33.30;36.20;;;;;;5049272;28;20025;-56
2022/08/01 09:37:17;;;;;;;7.55;3.70;;;33.30;35.40;;;;;;5049070;28;20028;-56
2022/08/01 09:39:45;;;;;;;7.70;3.25;;;33.40;35.30;;;;;;5041361;28;20059;-56
2022/08/01 09:42:23;;;;;;;11.65;4.60;;;33.40;37.50;;;;;;5046991;28;20036;-56
2022/08/01 09:44:50;;;;;;;4.18;2.60;;;33.80;35.10;;;;;;5062626;28;20037;-54
2022/08/01 09:47:16;;;;;;;19.02;3.90;;;33.60;35.10;;;;;;5044239;28;20020;-54
2022/08/01 09:49:43;;;;;;;4.65;2.72;;;33.70;34.90;;;;;;5045267;28;20108;-54
2022/08/01 09:52:19;;;;;;;7.50;3.40;;;33.40;34.20;;;;;;5051610;28;20262;-55
2022/08/01 09:54:53;;;;;;;9.05;3.85;;;32.90;35.50;;;;;;5051578;28;20037;-54
2022/08/01 09:57:20;;;;;;;12.52;3.60;;;32.80;36.20;;;;;;5054994;28;20044;-54
2022/08/01 09:59:48;;;;;;;8.70;3.05;;;33.40;36.40;;;;;;5049943;28;20116;-54
2022/08/01 10:02:26;;;;;;;3.10;2.40;;;33.40;35.20;;;;;;5036170;28;20052;-54
2022/08/01 10:04:54;;;;;;;10.90;2.85;;;33.40;35.00;;;;;;5053290;28;20048;-54
2022/08/01 10:07:21;;;;;;;6.35;2.58;;;33.60;35.70;;;;;;5052784;28;20459;-54
2022/08/01 10:09:48;;;;;;;7.78;3.05;;;34.00;35.40;;;;;;5052545;28;20033;-54
2022/08/01 10:12:17;;;;;;;14.55;3.58;;;34.20;33.90;;;;;;5049050;28;20047;-54
2022/08/01 10:14:45;;;;;;;13.43;3.53;;;34.20;33.20;;;;;;5048507;28;20029;-54
2022/08/01 10:17:15;;;;;;;4.43;2.60;;;34.40;33.60;;;;;;5046046;28;20032;-54
2022/08/01 10:19:43;;;;;;;10.65;2.80;;;34.20;34.00;;;;;;5048287;28;20032;-54
2022/08/01 10:22:10;;;;;;;3.47;2.28;;;34.40;32.80;;;;;;5054368;28;20032;-54
2022/08/01 10:24:39;;;;;;;10.85;2.92;;;33.80;32.70;;;;;;5038514;28;20037;-54
2022/08/01 10:27:10;;;;;;;3.67;2.85;;;34.20;33.40;;;;;;5042575;28;20082;-54
2022/08/01 10:30:00;;;;;;;7.45;2.75;;;34.70;33.80;;;;;;5052394;28;20403;-57
2022/08/01 10:32:26;;;;;;;6.55;2.65;;;34.30;33.10;;;;;;5052865;28;20043;-57
2022/08/01 10:34:54;;;;;;;4.03;2.85;;;34.00;32.90;;;;;;5053447;28;20029;-57
2022/08/01 10:37:20;;;;;;;5.95;2.50;;;33.80;34.40;;;;;;5053673;28;20123;-57
2022/08/01 10:39:47;;;;;;;4.03;2.22;;;33.80;31.80;;;;;;5054312;28;20478;-57
2022/08/01 10:42:13;;;;;;;12.35;2.85;;;34.30;32.70;;;;;;5056806;28;20029;-57
2022/08/01 10:44:40;;;;;;;16.70;2.78;;;34.10;29.90;;;;;;5057870;28;20025;-57
2022/08/01 10:47:32;;;;;;;20.05;2.80;;;34.10;31.10;;;;;;5057630;28;20478;-57
2022/08/01 10:50:24;;;;;;;4.70;2.53;;;34.20;29.70;;;;;;5043613;28;20052;-57
2022/08/01 10:53:15;;;;;;;3.17;2.00;;;34.50;30.10;;;;;;5046752;28;20034;-57
2022/08/01 10:55:50;;;;;;;5.30;1.80;;;34.50;31.30;;;;;;5049535;28;20026;-57
2022/08/01 10:58:24;;;;;;;1.90;1.50;;;34.20;33.30;;;;;;5049192;28;20056;-57
2022/08/01 11:01:26;;;;;;;6.38;1.77;;;34.80;29.50;;;;;;5049133;28;20025;-57
2022/08/01 11:04:01;;;;;;;5.15;2.85;;;34.40;30.20;;;;;;5047170;28;20045;-57
2022/08/01 11:06:33;;;;;;;3.10;1.40;;;35.10;30.10;;;;;;5056665;28;20039;-57
2022/08/01 11:09:05;;;;;;;2.72;1.65;;;35.20;29.40;;;;;;5054569;28;20537;-57
2022/08/01 11:11:31;;;;;;;4.25;2.05;;;35.10;29.10;;;;;;5057206;28;20037;-57
2022/08/01 11:14:01;;;;;;;10.48;2.08;;;35.20;29.20;;;;;;5057409;28;20072;-57
2022/08/01 11:16:31;;;;;;;6.57;2.40;;;34.70;28.80;;;;;;5057163;28;20040;-57
2022/08/01 11:19:00;;;;;;;;;;;35.00;29.10;;;;;;5045729;28;20029;-57
2022/08/01 11:21:59;;;;;;;6.72;1.90;;;34.90;28.90;;;;;;5041924;28;20003;-57
2022/08/01 11:24:51;;;;;;;6.82;2.35;;;34.50;29.30;;;;;;5055416;28;20025;-57
2022/08/01 11:27:31;;;;;;;5.18;1.48;;;34.50;30.00;;;;;;5056850;28;20154;-57
2022/08/01 11:30:08;;;;;;;4.57;2.15;;;34.10;29.80;;;;;;5047760;28;20033;-57
2022/08/01 11:32:47;;;;;;;3.90;1.95;;;34.10;31.20;;;;;;5045204;28;20079;-57
2022/08/01 11:35:14;;;;;;;10.00;1.85;;;34.40;30.60;;;;;;5042779;28;20030;-57
2022/08/01 11:37:40;;;;;;;2.75;1.20;;;34.50;30.00;;;;;;5047017;28;20056;-57
2022/08/01 11:40:35;;;;;;;9.63;3.10;;;34.60;30.20;;;;;;5056946;28;20043;-57
2022/08/01 11:43:13;;;;;;;3.13;1.90;;;34.70;30.00;;;;;;5053126;28;20045;-57
2022/08/01 11:45:55;;;;;;;8.65;2.30;;;34.70;30.70;;;;;;5042318;28;20033;-57
2022/08/01 11:48:23;;;;;;;2.72;2.00;;;34.10;30.20;;;;;;5036642;28;20040;-57
2022/08/01 11:50:54;;;;;;;6.78;3.15;;;33.90;31.30;;;;;;5038744;28;20072;-57
2022/08/01 11:53:21;;;;;;;2.00;1.80;;;33.80;31.10;;;;;;5050342;28;20056;-57
2022/08/01 11:55:49;;;;;;;7.35;4.20;;;33.40;30.70;;;;;;5054468;28;20029;-57
2022/08/01 11:58:16;;;;;;;3.22;1.90;;;32.20;32.90;;;;;;5046543;28;20059;-57
2022/08/01 12:01:31;;;;;;;13.15;2.45;;;32.00;34.50;;;;;;5048032;28;20546;-57
2022/08/01 12:08:05;;;;;;;4.05;1.95;;;31.60;34.40;;;;;;5046770;28;20168;-57
2022/08/01 12:10:58;;;;;;;2.88;1.70;;;32.40;36.10;;;;;;5046505;28;20104;-57
2022/08/01 12:14:01;;;;;;;4.97;2.17;;;32.70;33.70;;;;;;5051450;28;20033;-57
2022/08/01 12:16:59;;;;;;;4.85;2.72;;;32.80;33.20;;;;;;5055445;28;20165;-57
2022/08/01 12:19:28;;;;;;;14.05;3.67;;;32.30;34.50;;;;;;5054038;28;20013;-57
2022/08/01 12:22:11;;;;;;;5.90;2.40;;;32.60;35.20;;;;;;5048008;28;20052;-57
2022/08/01 12:24:38;;;;;;;7.78;3.22;;;32.00;36.00;;;;;;5052164;28;20037;-57
2022/08/01 12:27:05;;;;;;;15.38;5.00;;;31.80;36.00;;;;;;5044949;28;20041;-57
2022/08/01 12:29:43;;;;;;;6.15;2.67;;;32.30;35.50;;;;;;5053267;28;20496;-57
2022/08/01 12:32:22;;;;;;;8.27;2.53;;;32.10;35.00;;;;;;5054544;28;20036;-57
2022/08/01 12:34:49;;;;;;;11.85;3.88;;;32.40;35.60;;;;;;5052667;28;20420;-57
2022/08/01 12:37:16;;;;;;;14.98;3.40;;;32.60;35.80;;;;;;5038316;28;20034;-57
2022/08/01 12:39:41;;;;;;;6.53;2.80;;;32.70;35.10;;;;;;5043054;28;20025;-57
2022/08/01 12:42:10;;;;;;;9.00;3.40;;;32.80;34.40;;;;;;5045538;28;20398;-57
2022/08/01 12:44:37;;;;;;;8.45;3.65;;;32.20;34.70;;;;;;5049959;28;20080;-57
2022/08/01 12:51:09;;;;;;;6.18;2.35;;;32.10;36.70;;;;;;5045348;28;20094;-57
2022/08/01 12:53:53;;;;;;;11.07;3.30;;;32.10;36.10;;;;;;5054353;28;20029;-55
2022/08/01 12:59:24;;;;;;;8.20;2.70;;;32.20;35.40;;;;;;5051600;28;20033;-55
2022/08/01 13:02:12;;;;;;;9.57;3.17;;;32.20;36.30;;;;;;5040524;28;20026;-55
2022/08/01 13:04:51;;;;;;;9.05;3.10;;;31.60;36.40;;;;;;5034991;28;20386;-56
2022/08/01 13:10:37;;;;;;;13.13;3.15;;;31.30;38.00;;;;;;5054919;28;20037;-55
2022/08/01 13:13:03;;;;;;;8.23;3.55;;;31.60;38.50;;;;;;5054668;28;20605;-55
2022/08/01 13:15:34;;;;;;;5.00;2.40;;;31.70;38.10;;;;;;5055208;28;20033;-55